LHPP/PEV METAR and TAF weather

Enter ICAO airport designator
Station Type Date Time Source
LHPP METAR 2022/06/25 23:15 UTC NOAA

LHPP 252315Z AUTO 00000KT CAVOK 21/14 Q1014


Station Type Date Time Source
LHPP Decoded METAR 2022/06/25 23:15 UTC NOAA

Pecs / Pogany, Hungary (LHPP) 46-06N 018-14E 203M
Jun 25, 2022 - 07:15 PM EDT / 2022.06.25 2315 UTC
Wind: Calm:0
Visibility: greater than 7 mile(s):0
Temperature: 69 F (21 C)
Dew Point: 57 F (14 C)
Relative Humidity: 64%
Pressure (altimeter): 29.94 in. Hg (1014 hPa)
ob: LHPP 252315Z AUTO 00000KT CAVOK 21/14 Q1014
cycle: 23

Station Type Date Time Source
LHPP TAF 2017/08/21 15:50 UTC NOAA

TAF LHPP 211700Z 2115/2214 CNL

Example: see airport list